Latest Weather Observations for Point Wilson

IDV60901

Issued at 11:31 pm EST Monday 31 August 2015 (issued every 10 minutes, with the page automatically refreshed every 10 minutes)

About weather observations | Map of Melbourne area stations | Latest observations for Melbourne area | Other Formats
Station Details ID: 087166 Name: POINT WILSON Lat: -38.10 Lon: 144.54 Height: 18.0 m
Data from the previous 72 hours. | See also: Recent months for locations in Victoria
Date/Time
EST
Tmp

°C
App
Tmp
°C
Dew
Point
°C
Rel
Hum
%
Delta-T

°C
Wind Press
QNH
hPa
Press
MSL
hPa
Rain
since
9 am
mm
Dir
 
Spd
km/h
Gust
km/h
Spd
kts
Gust
kts
31/11:30pm - - - - - S 9 13 5 7 - - -
31/11:00pm - - - - - SSW 2 7 1 4 - - -
31/10:30pm - - - - - SSW 11 17 6 9 - - -
31/10:00pm - - - - - S 7 11 4 6 - - -
31/09:30pm - - - - - SSE 11 13 6 7 - - -
31/09:00pm - - - - - S 11 15 6 8 - - -
31/08:30pm - - - - - SSE 13 15 7 8 - - -
31/08:00pm - - - - - SSE 13 17 7 9 - - -
31/07:30pm - - - - - S 13 15 7 8 - - -
31/07:00pm - - - - - S 13 15 7 8 - - -
31/06:30pm - - - - - SE 11 13 6 7 - - -
31/06:00pm - - - - - S 11 15 6 8 - - -
31/05:30pm - - - - - S 15 17 8 9 - - -
31/05:00pm - - - - - SSW 15 19 8 10 - - -
31/04:30pm - - - - - SSW 15 19 8 10 - - -
31/04:00pm - - - - - SW 17 19 9 10 - - -
31/03:30pm - - - - - SW 11 13 6 7 - - -
31/03:00pm - - - - - SW 9 11 5 6 - - -
31/02:30pm - - - - - SW 13 17 7 9 - - -
31/02:00pm - - - - - SW 15 19 8 10 - - -
31/01:30pm - - - - - WSW 7 11 4 6 - - -
31/01:00pm - - - - - WNW 9 11 5 6 - - -
31/12:30pm - - - - - W 9 9 5 5 - - -
31/12:00pm - - - - - W 9 11 5 6 - - -
31/11:30am - - - - - CALM 0 0 0 0 - - -
31/11:00am - - - - - WSW 7 9 4 5 - - -
31/10:30am - - - - - WSW 9 11 5 6 - - -
31/10:00am - - - - - SW 9 11 5 6 - - -
31/09:30am - - - - - WSW 9 13 5 7 - - -
31/09:00am - - - - - W 15 17 8 9 - - -
31/08:30am - - - - - W 15 17 8 9 - - -
31/08:00am - - - - - W 17 20 9 11 - - -
31/07:30am - - - - - W 17 22 9 12 - - -
31/07:00am - - - - - W 17 19 9 10 - - -
31/06:30am - - - - - WNW 17 20 9 11 - - -
31/06:00am - - - - - W 19 22 10 12 - - -
31/05:30am - - - - - WSW 15 20 8 11 - - -
31/05:00am - - - - - WSW 17 24 9 13 - - -
31/04:30am - - - - - WSW 17 20 9 11 - - -
31/04:00am - - - - - WSW 17 20 9 11 - - -
31/03:30am - - - - - WSW 20 24 11 13 - - -
31/03:00am - - - - - WSW 19 22 10 12 - - -
31/02:30am - - - - - W 22 28 12 15 - - -
31/02:00am - - - - - WSW 20 22 11 12 - - -
31/01:30am - - - - - W 15 19 8 10 - - -
31/01:00am - - - - - W 13 17 7 9 - - -
31/12:30am - - - - - WSW 19 24 10 13 - - -
31/12:00am - - - - - WSW 7 11 4 6 - - -
 
Date/Time
EST
Tmp

°C
App
Tmp
°C
Dew
Point
°C
Rel
Hum
%
Delta-T

°C
Wind Press
QNH
hPa
Press
MSL
hPa
Rain
since
9 am
mm
Dir
 
Spd
km/h
Gust
km/h
Spd
kts
Gust
kts
30/11:30pm - - - - - SW 17 20 9 11 - - -
30/11:00pm - - - - - WSW 17 19 9 10 - - -
30/10:30pm - - - - - SW 19 20 10 11 - - -
30/10:00pm - - - - - WSW 15 19 8 10 - - -
30/09:30pm - - - - - SSW 19 22 10 12 - - -
30/09:00pm - - - - - SSW 20 24 11 13 - - -
30/08:30pm - - - - - SSW 26 30 14 16 - - -
30/08:00pm - - - - - SSW 28 33 15 18 - - -
30/07:30pm - - - - - SSW 24 30 13 16 - - -
30/07:00pm - - - - - S 22 28 12 15 - - -
30/06:30pm - - - - - SSW 26 30 14 16 - - -
30/06:00pm - - - - - SSW 24 30 13 16 - - -
30/05:30pm - - - - - SSW 26 28 14 15 - - -
30/05:00pm - - - - - SSW 24 28 13 15 - - -
30/04:30pm - - - - - SSW 22 28 12 15 - - -
30/04:00pm - - - - - SSW 19 22 10 12 - - -
30/03:30pm - - - - - SSW 26 32 14 17 - - -
30/03:00pm - - - - - SSW 24 30 13 16 - - -
30/02:30pm - - - - - S 22 28 12 15 - - -
30/02:00pm - - - - - SSW 24 30 13 16 - - -
30/01:30pm - - - - - SSW 24 28 13 15 - - -
30/01:00pm - - - - - SSW 26 32 14 17 - - -
30/12:30pm - - - - - SSW 28 32 15 17 - - -
30/12:00pm - - - - - SSW 28 33 15 18 - - -
30/11:30am - - - - - SSW 28 33 15 18 - - -
30/11:00am - - - - - SSW 28 32 15 17 - - -
30/10:30am - - - - - S 28 33 15 18 - - -
30/10:00am - - - - - SSW 28 35 15 19 - - -
30/09:30am - - - - - S 26 32 14 17 - - -
30/09:00am - - - - - SSW 26 30 14 16 - - -
30/08:30am - - - - - W 20 24 11 13 - - -
30/08:00am - - - - - WSW 22 26 12 14 - - -
30/07:30am - - - - - WSW 22 28 12 15 - - -
30/07:00am - - - - - SW 20 24 11 13 - - -
30/06:30am - - - - - W 19 22 10 12 - - -
30/06:00am - - - - - WSW 19 24 10 13 - - -
30/05:30am - - - - - WSW 20 28 11 15 - - -
30/05:00am - - - - - WSW 22 28 12 15 - - -
30/04:30am - - - - - WSW 22 28 12 15 - - -
30/04:00am - - - - - WSW 24 28 13 15 - - -
30/03:30am - - - - - SW 22 26 12 14 - - -
30/03:00am - - - - - SW 28 33 15 18 - - -
30/02:30am - - - - - SW 26 32 14 17 - - -
30/02:00am - - - - - SW 26 32 14 17 - - -
30/01:30am - - - - - SW 30 37 16 20 - - -
30/01:00am - - - - - SSW 32 39 17 21 - - -
30/12:30am - - - - - SSW 28 33 15 18 - - -
30/12:00am - - - - - SSW 30 39 16 21 - - -
 
Date/Time
EST
Tmp

°C
App
Tmp
°C
Dew
Point
°C
Rel
Hum
%
Delta-T

°C
Wind Press
QNH
hPa
Press
MSL
hPa
Rain
since
9 am
mm
Dir
 
Spd
km/h
Gust
km/h
Spd
kts
Gust
kts
29/11:30pm - - - - - SW 24 28 13 15 - - -
29/11:00pm - - - - - SW 30 33 16 18 - - -
29/10:30pm - - - - - SSW 30 35 16 19 - - -
29/10:00pm - - - - - S 28 33 15 18 - - -
29/09:30pm - - - - - SW 24 28 13 15 - - -
29/09:00pm - - - - - SW 37 44 20 24 - - -
29/08:30pm - - - - - SSW 30 33 16 18 - - -
29/08:09pm - - - - - SW 28 46 15 25 - - -
29/08:00pm - - - - - WSW 24 26 13 14 - - -
29/07:30pm - - - - - SW 28 33 15 18 - - -
29/07:00pm - - - - - SW 30 33 16 18 - - -
29/06:30pm - - - - - SW 28 33 15 18 - - -
29/06:00pm - - - - - SW 32 35 17 19 - - -
29/05:30pm - - - - - SW 33 39 18 21 - - -
29/05:00pm - - - - - SW 32 41 17 22 - - -
29/04:30pm - - - - - SW 37 46 20 25 - - -
29/04:00pm - - - - - SW 39 46 21 25 - - -
29/03:30pm - - - - - SW 41 46 22 25 - - -
29/03:00pm - - - - - SW 33 37 18 20 - - -
29/02:30pm - - - - - SW 35 41 19 22 - - -
29/02:00pm - - - - - SW 39 52 21 28 - - -
29/01:30pm - - - - - SSW 35 43 19 23 - - -
29/01:00pm - - - - - SW 37 46 20 25 - - -
29/12:30pm - - - - - SW 33 44 18 24 - - -
29/12:00pm - - - - - SSW 35 44 19 24 - - -
29/11:30am - - - - - SW 28 35 15 19 - - -
29/11:00am - - - - - W 30 37 16 20 - - -
29/10:30am - - - - - W 32 37 17 20 - - -
29/10:00am - - - - - WSW 28 35 15 19 - - -
29/09:30am - - - - - W 22 30 12 16 - - -
29/09:00am - - - - - W 24 30 13 16 - - -
29/08:30am - - - - - W 26 30 14 16 - - -
29/08:00am - - - - - W 26 28 14 15 - - -
29/07:30am - - - - - WNW 20 26 11 14 - - -
29/07:00am - - - - - SSW 24 30 13 16 - - -
29/06:30am - - - - - SSW 24 30 13 16 - - -
29/06:00am - - - - - SW 26 32 14 17 - - -
29/05:30am - - - - - SSW 26 32 14 17 - - -
29/05:00am - - - - - SSW 24 28 13 15 - - -
29/04:30am - - - - - SSW 19 20 10 11 - - -
29/04:00am - - - - - S 19 22 10 12 - - -
29/03:30am - - - - - S 17 22 9 12 - - -
29/03:00am - - - - - SSW 24 28 13 15 - - -
29/02:30am - - - - - S 28 35 15 19 - - -
29/02:00am - - - - - S 30 35 16 19 - - -
29/01:30am - - - - - S 20 24 11 13 - - -
29/01:00am - - - - - S 26 30 14 16 - - -
29/12:30am - - - - - S 24 32 13 17 - - -
29/12:00am - - - - - W 20 24 11 13 - - -

Latest Capital City Observations: Canberra | Sydney | Melbourne | Brisbane | Adelaide | Perth | Hobart | Darwin

Other Formats:

Comma delimited format used in spreadsheet applications
http://www.bom.gov.au/fwo/IDV60901/IDV60901.94847.axf

JavaScript Object Notation format (JSON) in row-major order
http://www.bom.gov.au/fwo/IDV60901/IDV60901.94847.json